Terminal Aerodrome Forecast
Issued by NWS Charleston, WV

Current Version | Previous Version | Text Only | Print | Product List | Glossary On
Versions: 1 2 3 4 5 6 7 8 9 10 11 12 13 14 15 16 17 18 19 20
000
FTUS41 KRLX 050800 AAA
TAFPKB
TAF AMD
KPKB 050854Z 0509/0606 00000KT P6SM VCSH BKN060
     FM051400 22003KT P6SM BKN080
     FM051700 25007KT P6SM SCT050
     FM060200 00000KT P6SM SCT060=

USA.gov is the U.S. government's official web portal to all federal, state and local government web resources and services.